sensor_id;sensor_type;location;lat;lon;timestamp;P1;durP1;ratioP1;P2;durP2;ratioP2
25657;SDS011;13517;59.320;18.042;2022-09-20T00:01:01;3.53;;;1.80;;
25657;SDS011;13517;59.320;18.042;2022-09-20T00:03:35;3.88;;;1.83;;
25657;SDS011;13517;59.320;18.042;2022-09-20T00:06:01;2.60;;;1.92;;
25657;SDS011;13517;59.320;18.042;2022-09-20T00:08:27;4.00;;;1.70;;
25657;SDS011;13517;59.320;18.042;2022-09-20T00:10:59;2.78;;;1.65;;
25657;SDS011;13517;59.320;18.042;2022-09-20T00:13:26;9.20;;;1.60;;
25657;SDS011;13517;59.320;18.042;2022-09-20T00:15:53;2.28;;;1.48;;
25657;SDS011;13517;59.320;18.042;2022-09-20T00:18:18;4.07;;;2.33;;
25657;SDS011;13517;59.320;18.042;2022-09-20T00:20:47;7.32;;;2.00;;
25657;SDS011;13517;59.320;18.042;2022-09-20T00:23:14;5.70;;;2.22;;
25657;SDS011;13517;59.320;18.042;2022-09-20T00:25:40;4.00;;;1.75;;
25657;SDS011;13517;59.320;18.042;2022-09-20T00:28:06;5.65;;;1.80;;
25657;SDS011;13517;59.320;18.042;2022-09-20T00:30:32;3.25;;;1.85;;
25657;SDS011;13517;59.320;18.042;2022-09-20T00:32:58;3.00;;;2.15;;
25657;SDS011;13517;59.320;18.042;2022-09-20T00:35:24;1.58;;;1.48;;
25657;SDS011;13517;59.320;18.042;2022-09-20T00:37:49;5.78;;;1.50;;
25657;SDS011;13517;59.320;18.042;2022-09-20T00:40:16;2.28;;;1.65;;
25657;SDS011;13517;59.320;18.042;2022-09-20T00:42:44;3.28;;;1.60;;
25657;SDS011;13517;59.320;18.042;2022-09-20T00:45:15;1.55;;;1.38;;
25657;SDS011;13517;59.320;18.042;2022-09-20T00:47:51;4.93;;;1.75;;
25657;SDS011;13517;59.320;18.042;2022-09-20T00:53:09;4.65;;;1.90;;
25657;SDS011;13517;59.320;18.042;2022-09-20T00:56:00;2.80;;;1.52;;
25657;SDS011;13517;59.320;18.042;2022-09-20T00:58:27;3.13;;;1.58;;
25657;SDS011;13517;59.320;18.042;2022-09-20T01:00:54;1.83;;;1.55;;
25657;SDS011;13517;59.320;18.042;2022-09-20T01:03:21;1.70;;;1.30;;
25657;SDS011;13517;59.320;18.042;2022-09-20T01:05:52;3.58;;;1.90;;
25657;SDS011;13517;59.320;18.042;2022-09-20T01:08:18;2.25;;;1.80;;
25657;SDS011;13517;59.320;18.042;2022-09-20T01:10:45;1.80;;;1.58;;
25657;SDS011;13517;59.320;18.042;2022-09-20T01:13:11;4.57;;;2.00;;
25657;SDS011;13517;59.320;18.042;2022-09-20T01:15:36;3.17;;;1.58;;
25657;SDS011;13517;59.320;18.042;2022-09-20T01:18:03;4.03;;;1.77;;
25657;SDS011;13517;59.320;18.042;2022-09-20T01:20:34;2.03;;;1.42;;
25657;SDS011;13517;59.320;18.042;2022-09-20T01:23:10;1.90;;;1.48;;
25657;SDS011;13517;59.320;18.042;2022-09-20T01:28:35;3.30;;;1.50;;
25657;SDS011;13517;59.320;18.042;2022-09-20T01:31:04;3.45;;;1.70;;
25657;SDS011;13517;59.320;18.042;2022-09-20T01:36:15;4.68;;;1.70;;
25657;SDS011;13517;59.320;18.042;2022-09-20T01:41:23;2.85;;;1.38;;
25657;SDS011;13517;59.320;18.042;2022-09-20T02:29:47;15.80;;;2.65;;
25657;SDS011;13517;59.320;18.042;2022-09-20T02:37:36;1.30;;;1.13;;
25657;SDS011;13517;59.320;18.042;2022-09-20T02:46:09;1.92;;;1.00;;
25657;SDS011;13517;59.320;18.042;2022-09-20T02:51:57;2.90;;;1.33;;
25657;SDS011;13517;59.320;18.042;2022-09-20T03:00:05;2.47;;;1.25;;
25657;SDS011;13517;59.320;18.042;2022-09-20T03:16:09;6.70;;;2.13;;
25657;SDS011;13517;59.320;18.042;2022-09-20T03:18:46;3.65;;;1.50;;
25657;SDS011;13517;59.320;18.042;2022-09-20T03:33:28;2.90;;;1.25;;
25657;SDS011;13517;59.320;18.042;2022-09-20T03:41:44;3.75;;;1.60;;
25657;SDS011;13517;59.320;18.042;2022-09-20T04:00:44;1.60;;;1.40;;
25657;SDS011;13517;59.320;18.042;2022-09-20T04:03:27;3.58;;;1.45;;
25657;SDS011;13517;59.320;18.042;2022-09-20T04:12:02;5.22;;;1.60;;
25657;SDS011;13517;59.320;18.042;2022-09-20T04:14:44;8.00;;;2.38;;
25657;SDS011;13517;59.320;18.042;2022-09-20T04:17:30;8.40;;;1.48;;
25657;SDS011;13517;59.320;18.042;2022-09-20T04:20:27;4.65;;;1.30;;
25657;SDS011;13517;59.320;18.042;2022-09-20T04:23:01;1.83;;;1.30;;
25657;SDS011;13517;59.320;18.042;2022-09-20T04:25:40;2.70;;;1.98;;
25657;SDS011;13517;59.320;18.042;2022-09-20T04:28:14;3.22;;;1.80;;
25657;SDS011;13517;59.320;18.042;2022-09-20T04:30:45;3.20;;;1.42;;
25657;SDS011;13517;59.320;18.042;2022-09-20T04:33:14;1.80;;;1.38;;
25657;SDS011;13517;59.320;18.042;2022-09-20T04:38:39;4.00;;;1.40;;
25657;SDS011;13517;59.320;18.042;2022-09-20T05:18:09;5.05;;;1.48;;
25657;SDS011;13517;59.320;18.042;2022-09-20T05:26:45;3.50;;;1.30;;
25657;SDS011;13517;59.320;18.042;2022-09-20T05:35:10;5.30;;;1.75;;
25657;SDS011;13517;59.320;18.042;2022-09-20T05:38:00;2.20;;;1.42;;
25657;SDS011;13517;59.320;18.042;2022-09-20T05:55:18;4.18;;;1.23;;
25657;SDS011;13517;59.320;18.042;2022-09-20T06:00:52;3.75;;;1.30;;
25657;SDS011;13517;59.320;18.042;2022-09-20T06:06:23;2.93;;;1.30;;
25657;SDS011;13517;59.320;18.042;2022-09-20T06:11:59;3.67;;;1.17;;
25657;SDS011;13517;59.320;18.042;2022-09-20T06:14:52;4.32;;;1.40;;
25657;SDS011;13517;59.320;18.042;2022-09-20T06:17:33;2.67;;;1.30;;
25657;SDS011;13517;59.320;18.042;2022-09-20T06:22:56;7.03;;;1.10;;
25657;SDS011;13517;59.320;18.042;2022-09-20T06:25:25;9.85;;;1.52;;
25657;SDS011;13517;59.320;18.042;2022-09-20T06:28:00;1.92;;;1.08;;
25657;SDS011;13517;59.320;18.042;2022-09-20T06:30:33;2.92;;;1.02;;
25657;SDS011;13517;59.320;18.042;2022-09-20T06:33:12;3.72;;;0.90;;
25657;SDS011;13517;59.320;18.042;2022-09-20T06:35:49;3.35;;;0.93;;
25657;SDS011;13517;59.320;18.042;2022-09-20T06:41:38;1.40;;;1.30;;
25657;SDS011;13517;59.320;18.042;2022-09-20T06:44:05;2.25;;;0.90;;
25657;SDS011;13517;59.320;18.042;2022-09-20T06:46:32;2.88;;;1.05;;
25657;SDS011;13517;59.320;18.042;2022-09-20T06:49:00;4.25;;;1.25;;
25657;SDS011;13517;59.320;18.042;2022-09-20T06:51:27;5.32;;;1.08;;
25657;SDS011;13517;59.320;18.042;2022-09-20T06:53:57;3.55;;;1.10;;
25657;SDS011;13517;59.320;18.042;2022-09-20T06:56:24;6.20;;;1.27;;
25657;SDS011;13517;59.320;18.042;2022-09-20T06:58:52;1.75;;;1.25;;
25657;SDS011;13517;59.320;18.042;2022-09-20T07:01:18;2.58;;;1.00;;
25657;SDS011;13517;59.320;18.042;2022-09-20T07:03:44;3.67;;;1.10;;
25657;SDS011;13517;59.320;18.042;2022-09-20T07:06:10;6.13;;;1.20;;
25657;SDS011;13517;59.320;18.042;2022-09-20T07:08:36;3.90;;;0.88;;
25657;SDS011;13517;59.320;18.042;2022-09-20T07:11:19;2.92;;;1.00;;
25657;SDS011;13517;59.320;18.042;2022-09-20T07:13:51;2.47;;;0.82;;
25657;SDS011;13517;59.320;18.042;2022-09-20T07:16:18;2.40;;;0.98;;
25657;SDS011;13517;59.320;18.042;2022-09-20T07:18:45;1.10;;;0.80;;
25657;SDS011;13517;59.320;18.042;2022-09-20T07:21:11;2.42;;;0.90;;
25657;SDS011;13517;59.320;18.042;2022-09-20T07:23:39;3.70;;;0.95;;
25657;SDS011;13517;59.320;18.042;2022-09-20T07:26:05;3.83;;;0.77;;
25657;SDS011;13517;59.320;18.042;2022-09-20T07:28:32;2.03;;;0.90;;
25657;SDS011;13517;59.320;18.042;2022-09-20T07:30:59;4.78;;;0.90;;
25657;SDS011;13517;59.320;18.042;2022-09-20T07:33:25;1.77;;;0.80;;
25657;SDS011;13517;59.320;18.042;2022-09-20T07:35:51;1.13;;;0.82;;
25657;SDS011;13517;59.320;18.042;2022-09-20T07:38:18;2.10;;;0.90;;
25657;SDS011;13517;59.320;18.042;2022-09-20T07:40:45;7.13;;;1.23;;
25657;SDS011;13517;59.320;18.042;2022-09-20T07:43:10;2.60;;;0.98;;
25657;SDS011;13517;59.320;18.042;2022-09-20T07:45:36;3.40;;;0.98;;
25657;SDS011;13517;59.320;18.042;2022-09-20T07:48:04;1.67;;;1.23;;
25657;SDS011;13517;59.320;18.042;2022-09-20T07:50:31;1.38;;;1.00;;
25657;SDS011;13517;59.320;18.042;2022-09-20T07:52:58;0.82;;;0.70;;
25657;SDS011;13517;59.320;18.042;2022-09-20T07:55:23;1.52;;;0.90;;
25657;SDS011;13517;59.320;18.042;2022-09-20T07:57:49;4.22;;;0.90;;
25657;SDS011;13517;59.320;18.042;2022-09-20T08:00:15;2.60;;;0.90;;
25657;SDS011;13517;59.320;18.042;2022-09-20T08:02:41;2.05;;;0.80;;
25657;SDS011;13517;59.320;18.042;2022-09-20T08:05:08;0.98;;;0.88;;
25657;SDS011;13517;59.320;18.042;2022-09-20T08:07:33;1.85;;;1.20;;
25657;SDS011;13517;59.320;18.042;2022-09-20T08:09:59;2.45;;;0.93;;
25657;SDS011;13517;59.320;18.042;2022-09-20T08:12:24;2.25;;;0.80;;
25657;SDS011;13517;59.320;18.042;2022-09-20T08:14:50;1.50;;;0.90;;
25657;SDS011;13517;59.320;18.042;2022-09-20T08:17:16;2.47;;;0.85;;
25657;SDS011;13517;59.320;18.042;2022-09-20T08:19:41;1.27;;;0.75;;
25657;SDS011;13517;59.320;18.042;2022-09-20T08:22:07;2.28;;;0.60;;
25657;SDS011;13517;59.320;18.042;2022-09-20T08:24:34;2.33;;;1.10;;
25657;SDS011;13517;59.320;18.042;2022-09-20T08:27:00;4.53;;;0.80;;
25657;SDS011;13517;59.320;18.042;2022-09-20T08:29:25;1.17;;;0.60;;
25657;SDS011;13517;59.320;18.042;2022-09-20T08:31:51;1.08;;;0.70;;
25657;SDS011;13517;59.320;18.042;2022-09-20T08:34:17;1.58;;;0.80;;
25657;SDS011;13517;59.320;18.042;2022-09-20T08:36:43;5.15;;;0.88;;
25657;SDS011;13517;59.320;18.042;2022-09-20T08:39:11;1.77;;;0.95;;
25657;SDS011;13517;59.320;18.042;2022-09-20T08:44:32;4.28;;;0.85;;
25657;SDS011;13517;59.320;18.042;2022-09-20T08:49:59;2.42;;;1.20;;
25657;SDS011;13517;59.320;18.042;2022-09-20T08:52:32;1.00;;;0.70;;
25657;SDS011;13517;59.320;18.042;2022-09-20T08:55:01;5.88;;;0.70;;
25657;SDS011;13517;59.320;18.042;2022-09-20T08:57:37;2.35;;;0.90;;
25657;SDS011;13517;59.320;18.042;2022-09-20T09:00:03;1.48;;;0.70;;
25657;SDS011;13517;59.320;18.042;2022-09-20T09:02:31;4.75;;;0.80;;
25657;SDS011;13517;59.320;18.042;2022-09-20T09:04:56;3.42;;;0.70;;
25657;SDS011;13517;59.320;18.042;2022-09-20T09:07:22;0.77;;;0.77;;
25657;SDS011;13517;59.320;18.042;2022-09-20T09:09:52;3.78;;;1.10;;
25657;SDS011;13517;59.320;18.042;2022-09-20T09:12:21;3.45;;;0.93;;
25657;SDS011;13517;59.320;18.042;2022-09-20T09:14:49;1.70;;;0.80;;
25657;SDS011;13517;59.320;18.042;2022-09-20T09:17:28;0.82;;;0.60;;
25657;SDS011;13517;59.320;18.042;2022-09-20T09:19:55;1.10;;;1.00;;
25657;SDS011;13517;59.320;18.042;2022-09-20T09:22:28;0.90;;;0.80;;
25657;SDS011;13517;59.320;18.042;2022-09-20T09:27:53;1.95;;;0.90;;
25657;SDS011;13517;59.320;18.042;2022-09-20T09:32:52;3.70;;;1.10;;
25657;SDS011;13517;59.320;18.042;2022-09-20T09:35:37;1.90;;;1.00;;
25657;SDS011;13517;59.320;18.042;2022-09-20T09:38:03;2.42;;;0.90;;
25657;SDS011;13517;59.320;18.042;2022-09-20T09:40:29;1.50;;;0.90;;
25657;SDS011;13517;59.320;18.042;2022-09-20T09:45:32;5.20;;;1.70;;
25657;SDS011;13517;59.320;18.042;2022-09-20T09:48:16;4.30;;;2.05;;
25657;SDS011;13517;59.320;18.042;2022-09-20T09:50:42;3.15;;;0.90;;
25657;SDS011;13517;59.320;18.042;2022-09-20T09:53:09;7.93;;;1.08;;
25657;SDS011;13517;59.320;18.042;2022-09-20T09:58:28;6.68;;;0.85;;
25657;SDS011;13517;59.320;18.042;2022-09-20T10:01:05;1.67;;;0.63;;
25657;SDS011;13517;59.320;18.042;2022-09-20T10:03:39;1.95;;;0.75;;
25657;SDS011;13517;59.320;18.042;2022-09-20T10:06:44;4.38;;;0.98;;
25657;SDS011;13517;59.320;18.042;2022-09-20T10:12:21;2.33;;;1.10;;
25657;SDS011;13517;59.320;18.042;2022-09-20T10:15:08;3.03;;;1.00;;
25657;SDS011;13517;59.320;18.042;2022-09-20T10:20:57;2.92;;;1.10;;
25657;SDS011;13517;59.320;18.042;2022-09-20T10:26:36;5.78;;;1.00;;
25657;SDS011;13517;59.320;18.042;2022-09-20T10:32:01;1.00;;;0.90;;
25657;SDS011;13517;59.320;18.042;2022-09-20T10:42:46;1.30;;;0.80;;
25657;SDS011;13517;59.320;18.042;2022-09-20T10:45:51;3.28;;;0.90;;
25657;SDS011;13517;59.320;18.042;2022-09-20T10:48:31;4.93;;;0.95;;
25657;SDS011;13517;59.320;18.042;2022-09-20T10:51:11;0.73;;;0.68;;
25657;SDS011;13517;59.320;18.042;2022-09-20T10:56:36;1.38;;;0.70;;
25657;SDS011;13517;59.320;18.042;2022-09-20T11:04:49;2.72;;;0.80;;
25657;SDS011;13517;59.320;18.042;2022-09-20T11:10:05;2.97;;;0.80;;
25657;SDS011;13517;59.320;18.042;2022-09-20T11:12:42;3.63;;;0.88;;
25657;SDS011;13517;59.320;18.042;2022-09-20T11:15:25;3.42;;;0.90;;
25657;SDS011;13517;59.320;18.042;2022-09-20T11:18:10;1.45;;;0.90;;
25657;SDS011;13517;59.320;18.042;2022-09-20T11:20:43;1.83;;;0.80;;
25657;SDS011;13517;59.320;18.042;2022-09-20T11:23:18;1.10;;;0.77;;
25657;SDS011;13517;59.320;18.042;2022-09-20T11:25:50;4.50;;;1.10;;
25657;SDS011;13517;59.320;18.042;2022-09-20T11:28:26;0.95;;;0.70;;
25657;SDS011;13517;59.320;18.042;2022-09-20T11:30:59;2.90;;;0.90;;
25657;SDS011;13517;59.320;18.042;2022-09-20T11:33:31;2.10;;;0.90;;
25657;SDS011;13517;59.320;18.042;2022-09-20T11:36:05;1.73;;;0.90;;
25657;SDS011;13517;59.320;18.042;2022-09-20T11:41:17;1.00;;;0.90;;
25657;SDS011;13517;59.320;18.042;2022-09-20T11:43:49;0.85;;;0.80;;
25657;SDS011;13517;59.320;18.042;2022-09-20T11:46:19;2.97;;;1.27;;
25657;SDS011;13517;59.320;18.042;2022-09-20T11:48:57;2.75;;;0.90;;
25657;SDS011;13517;59.320;18.042;2022-09-20T11:57:11;2.60;;;1.25;;
25657;SDS011;13517;59.320;18.042;2022-09-20T11:59:40;2.65;;;1.00;;
25657;SDS011;13517;59.320;18.042;2022-09-20T12:02:19;4.63;;;0.97;;
25657;SDS011;13517;59.320;18.042;2022-09-20T12:05:05;2.03;;;0.90;;
25657;SDS011;13517;59.320;18.042;2022-09-20T12:07:46;3.42;;;1.17;;
25657;SDS011;13517;59.320;18.042;2022-09-20T12:10:21;2.80;;;0.80;;
25657;SDS011;13517;59.320;18.042;2022-09-20T12:12:53;2.85;;;0.80;;
25657;SDS011;13517;59.320;18.042;2022-09-20T12:15:22;2.47;;;0.80;;
25657;SDS011;13517;59.320;18.042;2022-09-20T12:26:00;1.92;;;0.82;;
25657;SDS011;13517;59.320;18.042;2022-09-20T12:36:27;2.85;;;1.02;;
25657;SDS011;13517;59.320;18.042;2022-09-20T12:41:42;4.00;;;0.90;;
25657;SDS011;13517;59.320;18.042;2022-09-20T12:58:25;2.15;;;0.70;;
25657;SDS011;13517;59.320;18.042;2022-09-20T13:03:33;0.90;;;0.80;;
25657;SDS011;13517;59.320;18.042;2022-09-20T13:13:50;1.33;;;0.88;;
25657;SDS011;13517;59.320;18.042;2022-09-20T13:19:16;1.35;;;0.82;;
25657;SDS011;13517;59.320;18.042;2022-09-20T13:22:03;1.45;;;0.75;;
25657;SDS011;13517;59.320;18.042;2022-09-20T13:24:37;1.58;;;0.80;;
25657;SDS011;13517;59.320;18.042;2022-09-20T13:27:06;1.55;;;0.82;;
25657;SDS011;13517;59.320;18.042;2022-09-20T13:29:42;1.67;;;0.93;;
25657;SDS011;13517;59.320;18.042;2022-09-20T13:32:25;3.20;;;0.93;;
25657;SDS011;13517;59.320;18.042;2022-09-20T13:37:30;6.03;;;1.00;;
25657;SDS011;13517;59.320;18.042;2022-09-20T13:39:56;3.58;;;0.95;;
25657;SDS011;13517;59.320;18.042;2022-09-20T13:42:22;1.50;;;1.10;;
25657;SDS011;13517;59.320;18.042;2022-09-20T13:44:48;3.13;;;0.90;;
25657;SDS011;13517;59.320;18.042;2022-09-20T13:47:21;2.33;;;1.10;;
25657;SDS011;13517;59.320;18.042;2022-09-20T13:49:48;1.67;;;1.05;;
25657;SDS011;13517;59.320;18.042;2022-09-20T13:52:21;2.38;;;1.20;;
25657;SDS011;13517;59.320;18.042;2022-09-20T13:57:18;2.35;;;0.85;;
25657;SDS011;13517;59.320;18.042;2022-09-20T13:59:50;3.22;;;0.85;;
25657;SDS011;13517;59.320;18.042;2022-09-20T14:02:22;5.22;;;0.90;;
25657;SDS011;13517;59.320;18.042;2022-09-20T14:04:52;1.52;;;0.88;;
25657;SDS011;13517;59.320;18.042;2022-09-20T14:07:18;3.20;;;0.90;;
25657;SDS011;13517;59.320;18.042;2022-09-20T14:09:45;1.15;;;0.82;;
25657;SDS011;13517;59.320;18.042;2022-09-20T14:12:10;1.00;;;0.90;;
25657;SDS011;13517;59.320;18.042;2022-09-20T14:14:37;1.25;;;0.75;;
25657;SDS011;13517;59.320;18.042;2022-09-20T14:17:05;4.18;;;0.95;;
25657;SDS011;13517;59.320;18.042;2022-09-20T14:19:34;4.32;;;0.93;;
25657;SDS011;13517;59.320;18.042;2022-09-20T14:22:05;0.93;;;0.77;;
25657;SDS011;13517;59.320;18.042;2022-09-20T14:24:35;2.75;;;0.80;;
25657;SDS011;13517;59.320;18.042;2022-09-20T14:27:02;3.03;;;1.10;;
25657;SDS011;13517;59.320;18.042;2022-09-20T14:29:33;3.67;;;1.20;;
25657;SDS011;13517;59.320;18.042;2022-09-20T14:32:14;2.13;;;1.00;;
25657;SDS011;13517;59.320;18.042;2022-09-20T14:39:54;1.38;;;1.20;;
25657;SDS011;13517;59.320;18.042;2022-09-20T14:42:24;3.03;;;0.90;;
25657;SDS011;13517;59.320;18.042;2022-09-20T14:44:54;2.55;;;0.90;;
25657;SDS011;13517;59.320;18.042;2022-09-20T14:47:48;1.48;;;0.77;;
25657;SDS011;13517;59.320;18.042;2022-09-20T14:50:39;0.93;;;0.70;;
25657;SDS011;13517;59.320;18.042;2022-09-20T14:55:37;2.03;;;0.75;;
25657;SDS011;13517;59.320;18.042;2022-09-20T14:58:08;2.60;;;0.70;;
25657;SDS011;13517;59.320;18.042;2022-09-20T15:03:50;3.55;;;0.90;;
25657;SDS011;13517;59.320;18.042;2022-09-20T15:06:18;4.90;;;1.02;;
25657;SDS011;13517;59.320;18.042;2022-09-20T15:08:43;2.63;;;0.70;;
25657;SDS011;13517;59.320;18.042;2022-09-20T15:11:12;2.45;;;0.75;;
25657;SDS011;13517;59.320;18.042;2022-09-20T15:13:39;1.77;;;0.68;;
25657;SDS011;13517;59.320;18.042;2022-09-20T15:16:04;1.30;;;0.68;;
25657;SDS011;13517;59.320;18.042;2022-09-20T15:18:51;4.63;;;0.75;;
25657;SDS011;13517;59.320;18.042;2022-09-20T15:21:15;0.88;;;0.70;;
25657;SDS011;13517;59.320;18.042;2022-09-20T15:23:41;0.40;;;0.40;;
25657;SDS011;13517;59.320;18.042;2022-09-20T15:26:06;0.98;;;0.60;;
25657;SDS011;13517;59.320;18.042;2022-09-20T15:28:34;4.10;;;0.70;;
25657;SDS011;13517;59.320;18.042;2022-09-20T15:31:00;3.13;;;0.68;;
25657;SDS011;13517;59.320;18.042;2022-09-20T15:33:27;2.95;;;0.52;;
25657;SDS011;13517;59.320;18.042;2022-09-20T15:35:54;3.70;;;0.85;;
25657;SDS011;13517;59.320;18.042;2022-09-20T15:38:19;3.92;;;0.85;;
25657;SDS011;13517;59.320;18.042;2022-09-20T15:40:47;1.25;;;0.77;;
25657;SDS011;13517;59.320;18.042;2022-09-20T15:43:14;3.42;;;0.80;;
25657;SDS011;13517;59.320;18.042;2022-09-20T15:45:48;1.23;;;0.60;;
25657;SDS011;13517;59.320;18.042;2022-09-20T15:48:16;2.25;;;0.70;;
25657;SDS011;13517;59.320;18.042;2022-09-20T15:50:58;1.40;;;0.70;;
25657;SDS011;13517;59.320;18.042;2022-09-20T15:53:26;1.92;;;0.52;;
25657;SDS011;13517;59.320;18.042;2022-09-20T15:55:56;2.72;;;0.73;;
25657;SDS011;13517;59.320;18.042;2022-09-20T15:58:25;1.33;;;0.50;;
25657;SDS011;13517;59.320;18.042;2022-09-20T16:00:52;1.60;;;1.00;;
25657;SDS011;13517;59.320;18.042;2022-09-20T16:03:17;2.90;;;0.80;;
25657;SDS011;13517;59.320;18.042;2022-09-20T16:05:42;3.60;;;0.68;;
25657;SDS011;13517;59.320;18.042;2022-09-20T16:08:08;1.60;;;0.60;;
25657;SDS011;13517;59.320;18.042;2022-09-20T16:10:33;2.47;;;0.80;;
25657;SDS011;13517;59.320;18.042;2022-09-20T16:12:58;3.03;;;0.90;;
25657;SDS011;13517;59.320;18.042;2022-09-20T16:15:24;3.08;;;0.68;;
25657;SDS011;13517;59.320;18.042;2022-09-20T16:17:49;1.48;;;0.82;;
25657;SDS011;13517;59.320;18.042;2022-09-20T16:20:50;2.35;;;0.77;;
25657;SDS011;13517;59.320;18.042;2022-09-20T16:23:16;3.05;;;1.02;;
25657;SDS011;13517;59.320;18.042;2022-09-20T16:25:41;6.25;;;0.70;;
25657;SDS011;13517;59.320;18.042;2022-09-20T16:28:07;1.13;;;0.70;;
25657;SDS011;13517;59.320;18.042;2022-09-20T16:30:32;1.48;;;0.90;;
25657;SDS011;13517;59.320;18.042;2022-09-20T16:32:58;1.45;;;0.60;;
25657;SDS011;13517;59.320;18.042;2022-09-20T16:35:29;0.88;;;0.60;;
25657;SDS011;13517;59.320;18.042;2022-09-20T16:37:54;2.03;;;0.80;;
25657;SDS011;13517;59.320;18.042;2022-09-20T16:40:21;2.30;;;0.80;;
25657;SDS011;13517;59.320;18.042;2022-09-20T16:42:46;2.47;;;0.80;;
25657;SDS011;13517;59.320;18.042;2022-09-20T16:45:11;2.10;;;0.80;;
25657;SDS011;13517;59.320;18.042;2022-09-20T16:47:38;1.52;;;0.80;;
25657;SDS011;13517;59.320;18.042;2022-09-20T16:50:05;0.70;;;0.65;;
25657;SDS011;13517;59.320;18.042;2022-09-20T16:52:32;6.40;;;1.10;;
25657;SDS011;13517;59.320;18.042;2022-09-20T16:54:57;3.05;;;0.77;;
25657;SDS011;13517;59.320;18.042;2022-09-20T16:57:23;1.20;;;0.77;;
25657;SDS011;13517;59.320;18.042;2022-09-20T16:59:48;1.45;;;0.77;;
25657;SDS011;13517;59.320;18.042;2022-09-20T17:02:15;5.10;;;1.38;;
25657;SDS011;13517;59.320;18.042;2022-09-20T17:04:41;1.25;;;0.80;;
25657;SDS011;13517;59.320;18.042;2022-09-20T17:07:07;2.50;;;0.90;;
25657;SDS011;13517;59.320;18.042;2022-09-20T17:09:33;1.67;;;0.90;;
25657;SDS011;13517;59.320;18.042;2022-09-20T17:11:58;2.08;;;0.95;;
25657;SDS011;13517;59.320;18.042;2022-09-20T17:14:24;5.45;;;1.10;;
25657;SDS011;13517;59.320;18.042;2022-09-20T17:16:49;2.50;;;1.27;;
25657;SDS011;13517;59.320;18.042;2022-09-20T17:19:16;1.85;;;1.10;;
25657;SDS011;13517;59.320;18.042;2022-09-20T17:21:43;4.05;;;0.93;;
25657;SDS011;13517;59.320;18.042;2022-09-20T17:24:13;2.17;;;1.17;;
25657;SDS011;13517;59.320;18.042;2022-09-20T17:26:39;5.05;;;1.25;;
25657;SDS011;13517;59.320;18.042;2022-09-20T17:29:08;3.95;;;1.00;;
25657;SDS011;13517;59.320;18.042;2022-09-20T17:31:36;1.65;;;0.90;;
25657;SDS011;13517;59.320;18.042;2022-09-20T17:34:03;3.33;;;1.60;;
25657;SDS011;13517;59.320;18.042;2022-09-20T17:36:31;2.60;;;0.98;;
25657;SDS011;13517;59.320;18.042;2022-09-20T17:38:59;3.33;;;1.10;;
25657;SDS011;13517;59.320;18.042;2022-09-20T17:41:27;3.00;;;1.40;;
25657;SDS011;13517;59.320;18.042;2022-09-20T17:43:54;2.15;;;0.65;;
25657;SDS011;13517;59.320;18.042;2022-09-20T17:46:24;1.65;;;1.00;;
25657;SDS011;13517;59.320;18.042;2022-09-20T17:48:54;2.25;;;0.88;;
25657;SDS011;13517;59.320;18.042;2022-09-20T17:51:24;1.88;;;0.70;;
25657;SDS011;13517;59.320;18.042;2022-09-20T17:53:52;3.17;;;0.88;;
25657;SDS011;13517;59.320;18.042;2022-09-20T17:56:19;1.65;;;1.00;;
25657;SDS011;13517;59.320;18.042;2022-09-20T17:58:48;3.35;;;1.63;;
25657;SDS011;13517;59.320;18.042;2022-09-20T18:01:15;1.80;;;1.10;;
25657;SDS011;13517;59.320;18.042;2022-09-20T18:03:43;1.52;;;0.80;;
25657;SDS011;13517;59.320;18.042;2022-09-20T18:06:17;2.92;;;1.08;;
25657;SDS011;13517;59.320;18.042;2022-09-20T18:08:46;4.95;;;1.15;;
25657;SDS011;13517;59.320;18.042;2022-09-20T18:11:13;4.80;;;0.90;;
25657;SDS011;13517;59.320;18.042;2022-09-20T18:13:39;4.45;;;1.60;;
25657;SDS011;13517;59.320;18.042;2022-09-20T18:16:07;5.40;;;1.40;;
25657;SDS011;13517;59.320;18.042;2022-09-20T18:18:39;1.73;;;1.00;;
25657;SDS011;13517;59.320;18.042;2022-09-20T18:23:35;1.23;;;1.00;;
25657;SDS011;13517;59.320;18.042;2022-09-20T18:26:10;3.03;;;1.80;;
25657;SDS011;13517;59.320;18.042;2022-09-20T18:29:00;4.22;;;1.40;;
25657;SDS011;13517;59.320;18.042;2022-09-20T18:31:27;2.25;;;1.20;;
25657;SDS011;13517;59.320;18.042;2022-09-20T18:34:00;4.78;;;1.30;;
25657;SDS011;13517;59.320;18.042;2022-09-20T18:36:27;3.83;;;1.08;;
25657;SDS011;13517;59.320;18.042;2022-09-20T18:38:54;2.42;;;1.13;;
25657;SDS011;13517;59.320;18.042;2022-09-20T18:41:22;2.25;;;1.15;;
25657;SDS011;13517;59.320;18.042;2022-09-20T18:43:49;5.03;;;1.50;;
25657;SDS011;13517;59.320;18.042;2022-09-20T18:46:16;3.17;;;1.67;;
25657;SDS011;13517;59.320;18.042;2022-09-20T18:48:45;2.83;;;1.13;;
25657;SDS011;13517;59.320;18.042;2022-09-20T18:51:10;12.38;;;3.80;;
25657;SDS011;13517;59.320;18.042;2022-09-20T18:53:36;6.65;;;2.20;;
25657;SDS011;13517;59.320;18.042;2022-09-20T19:04:08;3.67;;;1.73;;
25657;SDS011;13517;59.320;18.042;2022-09-20T19:06:46;1.83;;;1.30;;
25657;SDS011;13517;59.320;18.042;2022-09-20T19:25:40;2.63;;;1.30;;
25657;SDS011;13517;59.320;18.042;2022-09-20T19:28:10;2.13;;;1.25;;
25657;SDS011;13517;59.320;18.042;2022-09-20T19:30:36;5.50;;;1.02;;
25657;SDS011;13517;59.320;18.042;2022-09-20T19:33:03;2.63;;;1.33;;
25657;SDS011;13517;59.320;18.042;2022-09-20T19:35:31;3.05;;;1.15;;
25657;SDS011;13517;59.320;18.042;2022-09-20T19:41:00;3.22;;;1.13;;
25657;SDS011;13517;59.320;18.042;2022-09-20T19:49:25;3.67;;;2.00;;
25657;SDS011;13517;59.320;18.042;2022-09-20T19:51:54;5.88;;;1.48;;
25657;SDS011;13517;59.320;18.042;2022-09-20T19:54:22;5.18;;;1.33;;
25657;SDS011;13517;59.320;18.042;2022-09-20T19:59:21;2.55;;;1.35;;
25657;SDS011;13517;59.320;18.042;2022-09-20T20:01:49;5.35;;;1.35;;
25657;SDS011;13517;59.320;18.042;2022-09-20T20:04:15;19.20;;;2.88;;
25657;SDS011;13517;59.320;18.042;2022-09-20T20:06:48;5.90;;;1.98;;
25657;SDS011;13517;59.320;18.042;2022-09-20T20:12:15;5.13;;;1.35;;
25657;SDS011;13517;59.320;18.042;2022-09-20T20:20:48;3.50;;;1.73;;
25657;SDS011;13517;59.320;18.042;2022-09-20T20:26:08;3.33;;;1.17;;
25657;SDS011;13517;59.320;18.042;2022-09-20T20:28:43;8.57;;;1.33;;
25657;SDS011;13517;59.320;18.042;2022-09-20T20:31:08;4.40;;;1.45;;
25657;SDS011;13517;59.320;18.042;2022-09-20T20:33:36;5.28;;;1.23;;
25657;SDS011;13517;59.320;18.042;2022-09-20T20:36:02;3.20;;;1.27;;
25657;SDS011;13517;59.320;18.042;2022-09-20T20:38:33;3.30;;;1.20;;
25657;SDS011;13517;59.320;18.042;2022-09-20T20:41:10;6.18;;;1.40;;
25657;SDS011;13517;59.320;18.042;2022-09-20T20:43:41;3.70;;;1.30;;
25657;SDS011;13517;59.320;18.042;2022-09-20T20:46:09;8.98;;;1.95;;
25657;SDS011;13517;59.320;18.042;2022-09-20T20:48:36;3.13;;;1.63;;
25657;SDS011;13517;59.320;18.042;2022-09-20T20:51:08;2.92;;;1.10;;
25657;SDS011;13517;59.320;18.042;2022-09-20T20:56:07;2.33;;;1.08;;
25657;SDS011;13517;59.320;18.042;2022-09-20T20:58:35;8.00;;;1.40;;
25657;SDS011;13517;59.320;18.042;2022-09-20T21:01:05;3.45;;;1.20;;
25657;SDS011;13517;59.320;18.042;2022-09-20T21:03:35;3.30;;;1.42;;
25657;SDS011;13517;59.320;18.042;2022-09-20T21:06:01;1.88;;;0.90;;
25657;SDS011;13517;59.320;18.042;2022-09-20T21:08:35;6.22;;;1.17;;
25657;SDS011;13517;59.320;18.042;2022-09-20T21:11:07;9.93;;;1.40;;
25657;SDS011;13517;59.320;18.042;2022-09-20T21:13:36;2.27;;;1.13;;
25657;SDS011;13517;59.320;18.042;2022-09-20T21:16:04;6.00;;;1.15;;